aviador You're here:

LFRH Decoded Metar

LORIENT in FRANCE
Report Time2018-06-24 20:00:00
UTC Time2018-06-24 20:33:37
Flight Rules vfr VFR
Wind040° at 09 kt
W.Decomp.*RWY 02: 8.3 kt HW 3.4 kt RCW
RWY 07: 7.9 kt HW 4.2 kt LCW
W.Rank040° ranks 10
Current wind is above 040° avg. (6.5)
Visibility9999 m
Phenomena:N/A
Clouds:N/A
Expected CloudBase > 3,200 ft AGL from Temp-Dew spread
CeilingNone
Temp19°C (ISA +4)
Dew Point11°C (60% RH)
AAT16.1°C
QNH1022 hPa
Density Alt522 ft
Elevation144 ft
Report Wrong Elevation
Raw Report
METAR LFRH 242000Z AUTO 04009KT CAVOK 19/11 Q1022 NOSIG=

Extra information for LFRH:More info

Metar Taf Metar & Taf Last 4 Metars F.Rules Stats Wind Profile Meteogram Temp Stats Airport Information Weather charts Add Link Nearby VenuesMetar ALERT Operation Metar Decoded Social comments